sensor_id;sensor_type;location;lat;lon;timestamp;P1;durP1;ratioP1;P2;durP2;ratioP2
72286;SDS011;60221;45.696;16.076;2024-03-08T00:00:18;34.50;;;13.70;;
72286;SDS011;60221;45.696;16.076;2024-03-08T00:02:46;30.30;;;12.50;;
72286;SDS011;60221;45.696;16.076;2024-03-08T00:05:14;32.30;;;13.50;;
72286;SDS011;60221;45.696;16.076;2024-03-08T00:07:42;36.80;;;14.10;;
72286;SDS011;60221;45.696;16.076;2024-03-08T00:10:11;33.60;;;15.30;;
72286;SDS011;60221;45.696;16.076;2024-03-08T00:12:41;33.10;;;15.10;;
72286;SDS011;60221;45.696;16.076;2024-03-08T00:15:09;37.00;;;14.50;;
72286;SDS011;60221;45.696;16.076;2024-03-08T00:17:37;31.40;;;13.00;;
72286;SDS011;60221;45.696;16.076;2024-03-08T00:20:05;39.50;;;15.80;;
72286;SDS011;60221;45.696;16.076;2024-03-08T00:22:35;26.80;;;12.60;;
72286;SDS011;60221;45.696;16.076;2024-03-08T00:25:03;32.40;;;14.20;;
72286;SDS011;60221;45.696;16.076;2024-03-08T00:27:30;32.30;;;13.50;;
72286;SDS011;60221;45.696;16.076;2024-03-08T00:29:57;29.00;;;13.20;;
72286;SDS011;60221;45.696;16.076;2024-03-08T00:32:24;26.40;;;11.20;;
72286;SDS011;60221;45.696;16.076;2024-03-08T00:34:52;28.80;;;11.90;;
72286;SDS011;60221;45.696;16.076;2024-03-08T00:37:18;27.50;;;11.80;;
72286;SDS011;60221;45.696;16.076;2024-03-08T00:39:45;28.90;;;12.00;;
72286;SDS011;60221;45.696;16.076;2024-03-08T00:42:12;31.60;;;13.00;;
72286;SDS011;60221;45.696;16.076;2024-03-08T00:44:41;27.50;;;13.00;;
72286;SDS011;60221;45.696;16.076;2024-03-08T00:47:08;28.90;;;12.70;;
72286;SDS011;60221;45.696;16.076;2024-03-08T00:49:35;28.60;;;12.60;;
72286;SDS011;60221;45.696;16.076;2024-03-08T00:52:04;32.90;;;13.70;;
72286;SDS011;60221;45.696;16.076;2024-03-08T00:54:36;38.90;;;15.70;;
72286;SDS011;60221;45.696;16.076;2024-03-08T00:57:03;30.40;;;14.20;;
72286;SDS011;60221;45.696;16.076;2024-03-08T00:59:31;35.00;;;14.30;;
72286;SDS011;60221;45.696;16.076;2024-03-08T01:02:02;33.80;;;14.40;;
72286;SDS011;60221;45.696;16.076;2024-03-08T01:04:29;32.30;;;14.70;;
72286;SDS011;60221;45.696;16.076;2024-03-08T01:06:56;30.00;;;12.50;;
72286;SDS011;60221;45.696;16.076;2024-03-08T01:09:24;25.20;;;11.10;;
72286;SDS011;60221;45.696;16.076;2024-03-08T01:11:51;28.60;;;12.20;;
72286;SDS011;60221;45.696;16.076;2024-03-08T01:14:21;27.00;;;11.20;;
72286;SDS011;60221;45.696;16.076;2024-03-08T01:16:49;25.60;;;12.10;;
72286;SDS011;60221;45.696;16.076;2024-03-08T01:19:17;23.10;;;9.70;;
72286;SDS011;60221;45.696;16.076;2024-03-08T01:21:44;20.90;;;9.10;;
72286;SDS011;60221;45.696;16.076;2024-03-08T01:24:11;22.30;;;8.20;;
72286;SDS011;60221;45.696;16.076;2024-03-08T01:26:38;18.20;;;8.00;;
72286;SDS011;60221;45.696;16.076;2024-03-08T01:29:05;16.30;;;7.20;;
72286;SDS011;60221;45.696;16.076;2024-03-08T01:31:32;16.20;;;7.50;;
72286;SDS011;60221;45.696;16.076;2024-03-08T01:33:59;19.90;;;8.00;;
72286;SDS011;60221;45.696;16.076;2024-03-08T01:36:26;18.10;;;8.00;;
72286;SDS011;60221;45.696;16.076;2024-03-08T01:38:53;22.40;;;8.30;;
72286;SDS011;60221;45.696;16.076;2024-03-08T01:41:21;19.70;;;8.50;;
72286;SDS011;60221;45.696;16.076;2024-03-08T01:43:48;18.00;;;7.50;;
72286;SDS011;60221;45.696;16.076;2024-03-08T01:46:18;15.60;;;7.80;;
72286;SDS011;60221;45.696;16.076;2024-03-08T01:48:46;15.50;;;7.90;;
72286;SDS011;60221;45.696;16.076;2024-03-08T01:51:14;18.60;;;7.90;;
72286;SDS011;60221;45.696;16.076;2024-03-08T01:53:42;15.80;;;7.40;;
72286;SDS011;60221;45.696;16.076;2024-03-08T01:56:12;17.80;;;8.30;;
72286;SDS011;60221;45.696;16.076;2024-03-08T01:58:42;25.10;;;9.20;;
72286;SDS011;60221;45.696;16.076;2024-03-08T02:01:14;27.80;;;10.50;;
72286;SDS011;60221;45.696;16.076;2024-03-08T02:03:42;26.00;;;10.20;;
72286;SDS011;60221;45.696;16.076;2024-03-08T02:06:11;26.60;;;10.40;;
72286;SDS011;60221;45.696;16.076;2024-03-08T02:08:41;24.80;;;10.50;;
72286;SDS011;60221;45.696;16.076;2024-03-08T02:11:10;24.70;;;10.10;;
72286;SDS011;60221;45.696;16.076;2024-03-08T02:13:37;23.80;;;9.70;;
72286;SDS011;60221;45.696;16.076;2024-03-08T02:16:05;20.70;;;9.80;;
72286;SDS011;60221;45.696;16.076;2024-03-08T02:18:35;18.70;;;8.60;;
72286;SDS011;60221;45.696;16.076;2024-03-08T02:21:04;20.60;;;8.20;;
72286;SDS011;60221;45.696;16.076;2024-03-08T02:23:32;21.20;;;9.10;;
72286;SDS011;60221;45.696;16.076;2024-03-08T02:26:00;18.10;;;8.50;;
72286;SDS011;60221;45.696;16.076;2024-03-08T02:28:27;21.20;;;9.90;;
72286;SDS011;60221;45.696;16.076;2024-03-08T02:30:56;20.40;;;9.30;;
72286;SDS011;60221;45.696;16.076;2024-03-08T02:33:25;20.50;;;9.10;;
72286;SDS011;60221;45.696;16.076;2024-03-08T02:35:52;23.00;;;9.90;;
72286;SDS011;60221;45.696;16.076;2024-03-08T02:38:21;20.20;;;9.60;;
72286;SDS011;60221;45.696;16.076;2024-03-08T02:40:49;22.30;;;9.90;;
72286;SDS011;60221;45.696;16.076;2024-03-08T02:43:19;20.20;;;9.60;;
72286;SDS011;60221;45.696;16.076;2024-03-08T02:45:46;20.10;;;9.50;;
72286;SDS011;60221;45.696;16.076;2024-03-08T02:48:14;20.60;;;10.10;;
72286;SDS011;60221;45.696;16.076;2024-03-08T02:50:42;20.60;;;9.30;;
72286;SDS011;60221;45.696;16.076;2024-03-08T02:53:12;20.90;;;9.50;;
72286;SDS011;60221;45.696;16.076;2024-03-08T02:55:40;21.70;;;9.90;;
72286;SDS011;60221;45.696;16.076;2024-03-08T02:58:08;22.20;;;10.20;;
72286;SDS011;60221;45.696;16.076;2024-03-08T03:00:37;23.20;;;10.90;;
72286;SDS011;60221;45.696;16.076;2024-03-08T03:03:08;22.20;;;9.60;;
72286;SDS011;60221;45.696;16.076;2024-03-08T03:05:35;23.70;;;10.10;;
72286;SDS011;60221;45.696;16.076;2024-03-08T03:08:03;20.70;;;10.70;;
72286;SDS011;60221;45.696;16.076;2024-03-08T03:10:36;25.10;;;10.80;;
72286;SDS011;60221;45.696;16.076;2024-03-08T03:13:04;29.10;;;13.50;;
72286;SDS011;60221;45.696;16.076;2024-03-08T03:15:35;27.50;;;13.20;;
72286;SDS011;60221;45.696;16.076;2024-03-08T03:18:03;27.20;;;12.50;;
72286;SDS011;60221;45.696;16.076;2024-03-08T03:20:32;25.40;;;12.60;;
72286;SDS011;60221;45.696;16.076;2024-03-08T03:23:00;28.60;;;12.80;;
72286;SDS011;60221;45.696;16.076;2024-03-08T03:25:29;24.30;;;11.50;;
72286;SDS011;60221;45.696;16.076;2024-03-08T03:28:01;25.90;;;11.70;;
72286;SDS011;60221;45.696;16.076;2024-03-08T03:30:28;27.60;;;12.20;;
72286;SDS011;60221;45.696;16.076;2024-03-08T03:33:00;24.50;;;11.40;;
72286;SDS011;60221;45.696;16.076;2024-03-08T03:35:28;28.10;;;12.70;;
72286;SDS011;60221;45.696;16.076;2024-03-08T03:37:58;24.80;;;12.10;;
72286;SDS011;60221;45.696;16.076;2024-03-08T03:40:37;23.40;;;11.20;;
72286;SDS011;60221;45.696;16.076;2024-03-08T03:43:05;21.60;;;9.80;;
72286;SDS011;60221;45.696;16.076;2024-03-08T03:45:32;21.80;;;10.50;;
72286;SDS011;60221;45.696;16.076;2024-03-08T03:48:04;22.60;;;10.70;;
72286;SDS011;60221;45.696;16.076;2024-03-08T03:50:34;21.90;;;10.80;;
72286;SDS011;60221;45.696;16.076;2024-03-08T03:53:03;23.50;;;11.90;;
72286;SDS011;60221;45.696;16.076;2024-03-08T03:55:31;25.80;;;11.10;;
72286;SDS011;60221;45.696;16.076;2024-03-08T03:57:59;25.20;;;12.20;;
72286;SDS011;60221;45.696;16.076;2024-03-08T04:00:28;29.70;;;12.00;;
72286;SDS011;60221;45.696;16.076;2024-03-08T04:02:55;29.70;;;11.90;;
72286;SDS011;60221;45.696;16.076;2024-03-08T04:05:26;24.80;;;11.90;;
72286;SDS011;60221;45.696;16.076;2024-03-08T04:07:53;28.30;;;12.20;;
72286;SDS011;60221;45.696;16.076;2024-03-08T04:10:20;29.50;;;12.00;;
72286;SDS011;60221;45.696;16.076;2024-03-08T04:12:47;26.50;;;11.80;;
72286;SDS011;60221;45.696;16.076;2024-03-08T04:15:14;25.90;;;12.00;;
72286;SDS011;60221;45.696;16.076;2024-03-08T04:17:42;25.80;;;12.40;;
72286;SDS011;60221;45.696;16.076;2024-03-08T04:20:09;26.00;;;11.90;;
72286;SDS011;60221;45.696;16.076;2024-03-08T04:22:37;24.30;;;11.80;;
72286;SDS011;60221;45.696;16.076;2024-03-08T04:25:06;21.50;;;11.00;;
72286;SDS011;60221;45.696;16.076;2024-03-08T04:27:33;25.90;;;11.20;;
72286;SDS011;60221;45.696;16.076;2024-03-08T04:30:01;27.70;;;12.30;;
72286;SDS011;60221;45.696;16.076;2024-03-08T04:32:29;21.20;;;10.20;;
72286;SDS011;60221;45.696;16.076;2024-03-08T04:34:57;21.70;;;10.60;;
72286;SDS011;60221;45.696;16.076;2024-03-08T04:37:24;25.70;;;10.90;;
72286;SDS011;60221;45.696;16.076;2024-03-08T04:39:52;24.80;;;11.70;;
72286;SDS011;60221;45.696;16.076;2024-03-08T04:42:19;22.10;;;9.70;;
72286;SDS011;60221;45.696;16.076;2024-03-08T04:44:47;23.20;;;10.10;;
72286;SDS011;60221;45.696;16.076;2024-03-08T04:47:14;23.40;;;10.10;;
72286;SDS011;60221;45.696;16.076;2024-03-08T04:49:41;24.60;;;10.60;;
72286;SDS011;60221;45.696;16.076;2024-03-08T04:52:08;25.90;;;11.10;;
72286;SDS011;60221;45.696;16.076;2024-03-08T04:54:35;25.00;;;11.30;;
72286;SDS011;60221;45.696;16.076;2024-03-08T04:57:02;25.60;;;12.80;;
72286;SDS011;60221;45.696;16.076;2024-03-08T04:59:34;25.50;;;12.10;;
72286;SDS011;60221;45.696;16.076;2024-03-08T05:02:03;27.10;;;11.60;;
72286;SDS011;60221;45.696;16.076;2024-03-08T05:04:30;23.70;;;11.10;;
72286;SDS011;60221;45.696;16.076;2024-03-08T05:06:57;26.20;;;11.70;;
72286;SDS011;60221;45.696;16.076;2024-03-08T05:09:28;24.30;;;11.40;;
72286;SDS011;60221;45.696;16.076;2024-03-08T05:11:56;24.20;;;10.90;;
72286;SDS011;60221;45.696;16.076;2024-03-08T05:14:25;27.60;;;12.20;;
72286;SDS011;60221;45.696;16.076;2024-03-08T05:16:52;25.40;;;11.60;;
72286;SDS011;60221;45.696;16.076;2024-03-08T05:19:20;30.20;;;12.80;;
72286;SDS011;60221;45.696;16.076;2024-03-08T05:21:48;26.60;;;13.00;;
72286;SDS011;60221;45.696;16.076;2024-03-08T05:24:15;25.60;;;11.70;;
72286;SDS011;60221;45.696;16.076;2024-03-08T05:26:43;25.90;;;11.40;;
72286;SDS011;60221;45.696;16.076;2024-03-08T05:29:11;21.10;;;10.40;;
72286;SDS011;60221;45.696;16.076;2024-03-08T05:31:46;22.20;;;10.50;;
72286;SDS011;60221;45.696;16.076;2024-03-08T05:34:14;22.60;;;9.70;;
72286;SDS011;60221;45.696;16.076;2024-03-08T05:36:42;22.60;;;9.10;;
72286;SDS011;60221;45.696;16.076;2024-03-08T05:39:12;23.30;;;9.50;;
72286;SDS011;60221;45.696;16.076;2024-03-08T05:41:39;19.40;;;9.60;;
72286;SDS011;60221;45.696;16.076;2024-03-08T05:44:07;21.80;;;9.90;;
72286;SDS011;60221;45.696;16.076;2024-03-08T05:46:35;22.70;;;10.60;;
72286;SDS011;60221;45.696;16.076;2024-03-08T05:49:03;22.10;;;9.60;;
72286;SDS011;60221;45.696;16.076;2024-03-08T05:51:33;22.10;;;10.40;;
72286;SDS011;60221;45.696;16.076;2024-03-08T05:54:01;21.60;;;10.10;;
72286;SDS011;60221;45.696;16.076;2024-03-08T05:56:29;20.10;;;10.30;;
72286;SDS011;60221;45.696;16.076;2024-03-08T05:58:56;21.90;;;10.60;;
72286;SDS011;60221;45.696;16.076;2024-03-08T06:01:25;21.70;;;10.50;;
72286;SDS011;60221;45.696;16.076;2024-03-08T06:03:53;21.90;;;10.50;;
72286;SDS011;60221;45.696;16.076;2024-03-08T06:06:23;22.60;;;10.40;;
72286;SDS011;60221;45.696;16.076;2024-03-08T06:08:50;20.20;;;10.30;;
72286;SDS011;60221;45.696;16.076;2024-03-08T06:11:18;25.50;;;10.80;;
72286;SDS011;60221;45.696;16.076;2024-03-08T06:13:46;23.20;;;11.00;;
72286;SDS011;60221;45.696;16.076;2024-03-08T06:16:13;24.30;;;10.90;;
72286;SDS011;60221;45.696;16.076;2024-03-08T06:18:40;24.90;;;12.10;;
72286;SDS011;60221;45.696;16.076;2024-03-08T06:21:08;27.60;;;12.60;;
72286;SDS011;60221;45.696;16.076;2024-03-08T06:23:39;24.90;;;12.40;;
72286;SDS011;60221;45.696;16.076;2024-03-08T06:26:10;28.20;;;13.40;;
72286;SDS011;60221;45.696;16.076;2024-03-08T06:28:37;26.80;;;13.50;;
72286;SDS011;60221;45.696;16.076;2024-03-08T06:31:04;28.00;;;12.50;;
72286;SDS011;60221;45.696;16.076;2024-03-08T06:33:31;27.50;;;13.20;;
72286;SDS011;60221;45.696;16.076;2024-03-08T06:35:59;26.90;;;11.60;;
72286;SDS011;60221;45.696;16.076;2024-03-08T06:38:26;24.40;;;12.10;;
72286;SDS011;60221;45.696;16.076;2024-03-08T06:40:53;24.60;;;11.80;;
72286;SDS011;60221;45.696;16.076;2024-03-08T06:43:21;24.30;;;11.20;;
72286;SDS011;60221;45.696;16.076;2024-03-08T06:45:48;27.80;;;10.20;;
72286;SDS011;60221;45.696;16.076;2024-03-08T06:48:16;27.90;;;12.30;;
72286;SDS011;60221;45.696;16.076;2024-03-08T06:50:44;29.10;;;12.90;;
72286;SDS011;60221;45.696;16.076;2024-03-08T06:53:12;37.00;;;15.80;;
72286;SDS011;60221;45.696;16.076;2024-03-08T06:55:40;40.80;;;19.60;;
72286;SDS011;60221;45.696;16.076;2024-03-08T06:58:07;35.80;;;16.00;;
72286;SDS011;60221;45.696;16.076;2024-03-08T07:00:34;29.20;;;13.30;;
72286;SDS011;60221;45.696;16.076;2024-03-08T07:03:03;27.50;;;13.60;;
72286;SDS011;60221;45.696;16.076;2024-03-08T07:05:30;32.90;;;13.20;;
72286;SDS011;60221;45.696;16.076;2024-03-08T07:07:57;26.10;;;11.50;;
72286;SDS011;60221;45.696;16.076;2024-03-08T07:10:25;27.40;;;13.00;;
72286;SDS011;60221;45.696;16.076;2024-03-08T07:12:52;27.90;;;12.20;;
72286;SDS011;60221;45.696;16.076;2024-03-08T07:15:22;30.90;;;14.40;;
72286;SDS011;60221;45.696;16.076;2024-03-08T07:17:50;38.60;;;19.00;;
72286;SDS011;60221;45.696;16.076;2024-03-08T07:20:20;31.20;;;16.90;;
72286;SDS011;60221;45.696;16.076;2024-03-08T07:22:47;33.80;;;15.60;;
72286;SDS011;60221;45.696;16.076;2024-03-08T07:25:15;34.90;;;15.00;;
72286;SDS011;60221;45.696;16.076;2024-03-08T07:27:53;28.00;;;13.50;;
72286;SDS011;60221;45.696;16.076;2024-03-08T07:30:20;28.60;;;12.10;;
72286;SDS011;60221;45.696;16.076;2024-03-08T07:33:07;31.50;;;14.50;;
72286;SDS011;60221;45.696;16.076;2024-03-08T07:35:34;25.90;;;11.70;;
72286;SDS011;60221;45.696;16.076;2024-03-08T07:38:05;30.20;;;14.10;;
72286;SDS011;60221;45.696;16.076;2024-03-08T07:40:35;28.80;;;12.50;;
72286;SDS011;60221;45.696;16.076;2024-03-08T07:43:02;29.80;;;15.10;;
72286;SDS011;60221;45.696;16.076;2024-03-08T07:45:32;35.90;;;16.30;;
72286;SDS011;60221;45.696;16.076;2024-03-08T07:48:16;30.20;;;13.20;;
72286;SDS011;60221;45.696;16.076;2024-03-08T07:50:44;27.80;;;12.50;;
72286;SDS011;60221;45.696;16.076;2024-03-08T07:53:12;30.30;;;13.60;;
72286;SDS011;60221;45.696;16.076;2024-03-08T07:55:39;28.00;;;12.40;;
72286;SDS011;60221;45.696;16.076;2024-03-08T07:58:09;29.60;;;12.20;;
72286;SDS011;60221;45.696;16.076;2024-03-08T08:00:37;30.50;;;12.50;;
72286;SDS011;60221;45.696;16.076;2024-03-08T08:03:05;25.90;;;12.00;;
72286;SDS011;60221;45.696;16.076;2024-03-08T08:05:32;26.10;;;11.90;;
72286;SDS011;60221;45.696;16.076;2024-03-08T08:08:02;26.70;;;12.90;;
72286;SDS011;60221;45.696;16.076;2024-03-08T08:10:33;27.90;;;12.40;;
72286;SDS011;60221;45.696;16.076;2024-03-08T08:13:01;28.40;;;12.10;;
72286;SDS011;60221;45.696;16.076;2024-03-08T08:15:38;28.30;;;12.40;;
72286;SDS011;60221;45.696;16.076;2024-03-08T08:18:05;25.40;;;11.60;;
72286;SDS011;60221;45.696;16.076;2024-03-08T08:20:33;28.40;;;11.50;;
72286;SDS011;60221;45.696;16.076;2024-03-08T08:23:01;25.80;;;11.90;;
72286;SDS011;60221;45.696;16.076;2024-03-08T08:25:28;24.60;;;11.50;;
72286;SDS011;60221;45.696;16.076;2024-03-08T08:27:59;25.10;;;12.70;;
72286;SDS011;60221;45.696;16.076;2024-03-08T08:30:26;25.40;;;11.20;;
72286;SDS011;60221;45.696;16.076;2024-03-08T08:32:54;24.60;;;12.30;;
72286;SDS011;60221;45.696;16.076;2024-03-08T08:35:22;28.60;;;13.30;;
72286;SDS011;60221;45.696;16.076;2024-03-08T08:38:00;30.50;;;13.40;;
72286;SDS011;60221;45.696;16.076;2024-03-08T08:40:31;35.00;;;15.80;;
72286;SDS011;60221;45.696;16.076;2024-03-08T08:42:59;34.50;;;14.90;;
72286;SDS011;60221;45.696;16.076;2024-03-08T08:45:26;29.10;;;12.70;;
72286;SDS011;60221;45.696;16.076;2024-03-08T08:47:54;27.30;;;12.00;;
72286;SDS011;60221;45.696;16.076;2024-03-08T08:50:22;25.30;;;11.80;;
72286;SDS011;60221;45.696;16.076;2024-03-08T08:52:53;26.90;;;11.20;;
72286;SDS011;60221;45.696;16.076;2024-03-08T08:55:21;25.40;;;11.40;;
72286;SDS011;60221;45.696;16.076;2024-03-08T08:57:52;28.60;;;12.30;;
72286;SDS011;60221;45.696;16.076;2024-03-08T09:00:20;25.30;;;12.40;;
72286;SDS011;60221;45.696;16.076;2024-03-08T09:02:48;25.80;;;12.10;;
72286;SDS011;60221;45.696;16.076;2024-03-08T09:05:15;25.80;;;12.00;;
72286;SDS011;60221;45.696;16.076;2024-03-08T09:07:44;28.20;;;13.40;;
72286;SDS011;60221;45.696;16.076;2024-03-08T09:10:14;29.40;;;13.50;;
72286;SDS011;60221;45.696;16.076;2024-03-08T09:12:44;29.30;;;12.20;;
72286;SDS011;60221;45.696;16.076;2024-03-08T09:15:12;29.80;;;13.60;;
72286;SDS011;60221;45.696;16.076;2024-03-08T09:17:42;30.80;;;13.60;;
72286;SDS011;60221;45.696;16.076;2024-03-08T09:20:11;27.50;;;13.20;;
72286;SDS011;60221;45.696;16.076;2024-03-08T09:22:46;28.60;;;13.50;;
72286;SDS011;60221;45.696;16.076;2024-03-08T09:25:13;28.60;;;12.30;;
72286;SDS011;60221;45.696;16.076;2024-03-08T09:27:41;29.00;;;13.40;;
72286;SDS011;60221;45.696;16.076;2024-03-08T09:30:09;31.80;;;14.60;;
72286;SDS011;60221;45.696;16.076;2024-03-08T09:32:40;29.30;;;13.60;;
72286;SDS011;60221;45.696;16.076;2024-03-08T09:35:08;28.20;;;12.90;;
72286;SDS011;60221;45.696;16.076;2024-03-08T09:37:35;32.80;;;15.50;;
72286;SDS011;60221;45.696;16.076;2024-03-08T09:40:03;36.20;;;16.30;;
72286;SDS011;60221;45.696;16.076;2024-03-08T09:42:37;34.80;;;15.70;;
72286;SDS011;60221;45.696;16.076;2024-03-08T09:45:07;37.00;;;15.50;;
72286;SDS011;60221;45.696;16.076;2024-03-08T09:47:34;31.70;;;15.10;;
72286;SDS011;60221;45.696;16.076;2024-03-08T09:50:07;32.70;;;15.10;;
72286;SDS011;60221;45.696;16.076;2024-03-08T09:52:40;34.10;;;15.70;;
72286;SDS011;60221;45.696;16.076;2024-03-08T09:55:07;32.70;;;14.70;;
72286;SDS011;60221;45.696;16.076;2024-03-08T09:57:35;36.00;;;15.10;;
72286;SDS011;60221;45.696;16.076;2024-03-08T10:00:06;30.20;;;13.40;;
72286;SDS011;60221;45.696;16.076;2024-03-08T10:02:45;31.50;;;14.30;;
72286;SDS011;60221;45.696;16.076;2024-03-08T10:05:13;32.50;;;14.60;;
72286;SDS011;60221;45.696;16.076;2024-03-08T10:07:40;35.30;;;14.60;;
72286;SDS011;60221;45.696;16.076;2024-03-08T10:10:08;30.10;;;14.50;;
72286;SDS011;60221;45.696;16.076;2024-03-08T10:12:35;35.30;;;15.50;;
72286;SDS011;60221;45.696;16.076;2024-03-08T10:15:02;32.50;;;14.50;;
72286;SDS011;60221;45.696;16.076;2024-03-08T10:17:29;34.00;;;15.90;;
72286;SDS011;60221;45.696;16.076;2024-03-08T10:19:59;33.40;;;15.00;;
72286;SDS011;60221;45.696;16.076;2024-03-08T10:22:27;32.80;;;14.40;;
72286;SDS011;60221;45.696;16.076;2024-03-08T10:24:56;32.30;;;15.10;;
72286;SDS011;60221;45.696;16.076;2024-03-08T10:27:23;32.10;;;13.80;;
72286;SDS011;60221;45.696;16.076;2024-03-08T10:29:53;33.20;;;14.90;;
72286;SDS011;60221;45.696;16.076;2024-03-08T10:32:20;32.80;;;15.00;;
72286;SDS011;60221;45.696;16.076;2024-03-08T10:34:47;31.60;;;14.80;;
72286;SDS011;60221;45.696;16.076;2024-03-08T10:37:17;32.40;;;16.40;;
72286;SDS011;60221;45.696;16.076;2024-03-08T10:40:02;33.90;;;15.30;;
72286;SDS011;60221;45.696;16.076;2024-03-08T10:42:52;31.40;;;14.20;;
72286;SDS011;60221;45.696;16.076;2024-03-08T10:45:39;32.70;;;14.40;;
72286;SDS011;60221;45.696;16.076;2024-03-08T10:51:08;28.80;;;13.90;;
72286;SDS011;60221;45.696;16.076;2024-03-08T10:53:39;30.70;;;14.20;;
72286;SDS011;60221;45.696;16.076;2024-03-08T10:56:08;27.70;;;13.30;;
72286;SDS011;60221;45.696;16.076;2024-03-08T10:58:37;31.10;;;13.80;;
72286;SDS011;60221;45.696;16.076;2024-03-08T11:01:05;27.70;;;13.50;;
72286;SDS011;60221;45.696;16.076;2024-03-08T11:03:46;25.60;;;12.40;;
72286;SDS011;60221;45.696;16.076;2024-03-08T11:09:31;27.10;;;12.00;;
72286;SDS011;60221;45.696;16.076;2024-03-08T11:14:59;24.20;;;11.50;;
72286;SDS011;60221;45.696;16.076;2024-03-08T11:19:55;25.80;;;11.50;;
72286;SDS011;60221;45.696;16.076;2024-03-08T11:22:27;23.40;;;11.30;;
72286;SDS011;60221;45.696;16.076;2024-03-08T11:25:03;26.20;;;10.70;;
72286;SDS011;60221;45.696;16.076;2024-03-08T11:27:35;23.10;;;9.90;;
72286;SDS011;60221;45.696;16.076;2024-03-08T11:30:07;21.30;;;10.20;;
72286;SDS011;60221;45.696;16.076;2024-03-08T11:32:45;24.30;;;11.20;;
72286;SDS011;60221;45.696;16.076;2024-03-08T11:35:20;26.40;;;11.60;;
72286;SDS011;60221;45.696;16.076;2024-03-08T11:37:48;26.20;;;11.70;;
72286;SDS011;60221;45.696;16.076;2024-03-08T11:40:15;25.70;;;12.00;;
72286;SDS011;60221;45.696;16.076;2024-03-08T11:42:44;24.40;;;11.50;;
72286;SDS011;60221;45.696;16.076;2024-03-08T11:45:14;25.00;;;11.00;;
72286;SDS011;60221;45.696;16.076;2024-03-08T11:47:44;25.20;;;11.20;;
72286;SDS011;60221;45.696;16.076;2024-03-08T11:50:13;26.20;;;12.20;;
72286;SDS011;60221;45.696;16.076;2024-03-08T11:52:41;24.10;;;12.20;;
72286;SDS011;60221;45.696;16.076;2024-03-08T11:55:10;29.60;;;13.20;;
72286;SDS011;60221;45.696;16.076;2024-03-08T11:57:40;28.40;;;13.10;;
72286;SDS011;60221;45.696;16.076;2024-03-08T12:00:16;26.80;;;12.30;;
72286;SDS011;60221;45.696;16.076;2024-03-08T12:03:03;24.10;;;11.10;;
72286;SDS011;60221;45.696;16.076;2024-03-08T12:05:30;27.90;;;11.20;;
72286;SDS011;60221;45.696;16.076;2024-03-08T12:07:58;25.60;;;12.10;;
72286;SDS011;60221;45.696;16.076;2024-03-08T12:10:26;26.80;;;12.70;;
72286;SDS011;60221;45.696;16.076;2024-03-08T12:12:56;24.00;;;11.90;;
72286;SDS011;60221;45.696;16.076;2024-03-08T12:15:27;24.30;;;12.10;;
72286;SDS011;60221;45.696;16.076;2024-03-08T12:17:55;26.70;;;11.40;;
72286;SDS011;60221;45.696;16.076;2024-03-08T12:20:25;27.30;;;12.00;;
72286;SDS011;60221;45.696;16.076;2024-03-08T12:22:54;26.00;;;11.90;;
72286;SDS011;60221;45.696;16.076;2024-03-08T12:25:29;27.00;;;13.00;;
72286;SDS011;60221;45.696;16.076;2024-03-08T12:28:09;26.30;;;12.60;;
72286;SDS011;60221;45.696;16.076;2024-03-08T12:30:48;29.40;;;11.80;;
72286;SDS011;60221;45.696;16.076;2024-03-08T12:33:16;29.40;;;13.90;;
72286;SDS011;60221;45.696;16.076;2024-03-08T12:35:53;26.10;;;12.90;;
72286;SDS011;60221;45.696;16.076;2024-03-08T12:38:22;29.30;;;13.50;;
72286;SDS011;60221;45.696;16.076;2024-03-08T12:40:59;25.70;;;11.60;;
72286;SDS011;60221;45.696;16.076;2024-03-08T12:43:28;28.20;;;14.30;;
72286;SDS011;60221;45.696;16.076;2024-03-08T12:45:59;27.60;;;12.00;;
72286;SDS011;60221;45.696;16.076;2024-03-08T12:48:26;26.70;;;12.20;;
72286;SDS011;60221;45.696;16.076;2024-03-08T12:50:53;29.90;;;13.20;;
72286;SDS011;60221;45.696;16.076;2024-03-08T12:53:21;27.10;;;13.20;;
72286;SDS011;60221;45.696;16.076;2024-03-08T12:55:50;28.80;;;13.30;;
72286;SDS011;60221;45.696;16.076;2024-03-08T12:58:17;32.30;;;14.30;;
72286;SDS011;60221;45.696;16.076;2024-03-08T13:00:47;33.30;;;14.10;;
72286;SDS011;60221;45.696;16.076;2024-03-08T13:03:20;28.00;;;14.30;;
72286;SDS011;60221;45.696;16.076;2024-03-08T13:05:47;30.20;;;12.60;;
72286;SDS011;60221;45.696;16.076;2024-03-08T13:08:16;28.50;;;13.20;;
72286;SDS011;60221;45.696;16.076;2024-03-08T13:10:45;32.20;;;14.20;;
72286;SDS011;60221;45.696;16.076;2024-03-08T13:13:12;31.50;;;14.40;;
72286;SDS011;60221;45.696;16.076;2024-03-08T13:15:44;29.80;;;14.20;;
72286;SDS011;60221;45.696;16.076;2024-03-08T13:18:12;30.30;;;13.20;;
72286;SDS011;60221;45.696;16.076;2024-03-08T13:20:39;32.90;;;14.70;;
72286;SDS011;60221;45.696;16.076;2024-03-08T13:23:13;29.40;;;12.80;;
72286;SDS011;60221;45.696;16.076;2024-03-08T13:25:41;31.40;;;12.80;;
72286;SDS011;60221;45.696;16.076;2024-03-08T13:28:08;30.40;;;14.10;;
72286;SDS011;60221;45.696;16.076;2024-03-08T13:30:36;29.30;;;12.30;;
72286;SDS011;60221;45.696;16.076;2024-03-08T13:33:03;35.10;;;15.70;;
72286;SDS011;60221;45.696;16.076;2024-03-08T13:35:32;34.10;;;16.20;;
72286;SDS011;60221;45.696;16.076;2024-03-08T13:37:59;33.50;;;16.00;;
72286;SDS011;60221;45.696;16.076;2024-03-08T13:40:30;66.50;;;25.30;;
72286;SDS011;60221;45.696;16.076;2024-03-08T13:42:58;59.80;;;24.40;;
72286;SDS011;60221;45.696;16.076;2024-03-08T13:45:28;42.50;;;18.40;;
72286;SDS011;60221;45.696;16.076;2024-03-08T13:47:55;32.00;;;14.40;;
72286;SDS011;60221;45.696;16.076;2024-03-08T13:50:23;36.60;;;16.90;;
72286;SDS011;60221;45.696;16.076;2024-03-08T13:52:50;37.90;;;19.00;;
72286;SDS011;60221;45.696;16.076;2024-03-08T13:55:21;28.00;;;13.50;;
72286;SDS011;60221;45.696;16.076;2024-03-08T13:57:54;34.40;;;18.60;;
72286;SDS011;60221;45.696;16.076;2024-03-08T14:00:24;70.50;;;34.90;;
72286;SDS011;60221;45.696;16.076;2024-03-08T14:02:54;36.80;;;17.60;;
72286;SDS011;60221;45.696;16.076;2024-03-08T14:05:22;27.80;;;13.60;;
72286;SDS011;60221;45.696;16.076;2024-03-08T14:07:49;22.60;;;11.40;;
72286;SDS011;60221;45.696;16.076;2024-03-08T14:10:17;25.00;;;11.40;;
72286;SDS011;60221;45.696;16.076;2024-03-08T14:12:49;26.30;;;12.00;;
72286;SDS011;60221;45.696;16.076;2024-03-08T14:15:17;26.40;;;11.40;;
72286;SDS011;60221;45.696;16.076;2024-03-08T14:17:45;40.20;;;18.20;;
72286;SDS011;60221;45.696;16.076;2024-03-08T14:20:19;28.50;;;12.20;;
72286;SDS011;60221;45.696;16.076;2024-03-08T14:25:34;30.20;;;13.40;;
72286;SDS011;60221;45.696;16.076;2024-03-08T14:28:02;32.00;;;13.50;;
72286;SDS011;60221;45.696;16.076;2024-03-08T14:30:34;27.60;;;12.80;;
72286;SDS011;60221;45.696;16.076;2024-03-08T14:33:03;21.60;;;10.50;;
72286;SDS011;60221;45.696;16.076;2024-03-08T14:35:32;24.40;;;11.10;;